WetterOnline ( http://www.wetteronline.de )

Wetter aktuell Seelow

Aktuelles Wetter: Manschnow (16m)

6-stündlich | Neueste Meldungen
Ortszeit Temperatur Wetter
Mi, 19.09. 14:00 27.8° C wolkenlos
Mi, 19.09. 8:00 14.7° C wolkenlos
Mi, 19.09. 2:00 16.3° C wolkenlos
Di, 18.09. 20:00 24.4° C wolkenlos
Di, 18.09. 14:00 29.1° C leicht bewölkt
Di, 18.09. 8:00 12.2° C -
Di, 18.09. 2:00 13.4° C -
Mo, 17.09. 20:00 19.3° C -
Ortszeit Temperatur Wetter
Mi, 19.09. 17:00 28.4° C leicht bewölkt
Mi, 19.09. 16:50 28.4° C leicht bewölkt
Mi, 19.09. 16:40 28.2° C wolkig
Mi, 19.09. 16:30 28.1° C wolkig
Mi, 19.09. 16:20 28.1° C wolkig
Mi, 19.09. 16:10 28.7° C wolkig
Mi, 19.09. 16:00 28.5° C leicht bewölkt
Mi, 19.09. 15:30 28.2° C wolkig
Mi, 19.09. 15:00 27.8° C leicht bewölkt
Mi, 19.09. 14:30 27.5° C leicht bewölkt
Mi, 19.09. 14:00 27.8° C wolkenlos
Ortszeit Relative Feuchte Sichtweite
Mi, 19.09. 14:00 37% 16 km
Mi, 19.09. 8:00 71% 13 km
Mi, 19.09. 2:00 68% 20 km
Di, 18.09. 20:00 42% 25 km
Di, 18.09. 14:00 34% 15 km
Di, 18.09. 8:00 76% 12 km
Di, 18.09. 2:00 68% 21 km
Mo, 17.09. 20:00 44% 30 km
Ortszeit Relative Feuchte Sichtweite
Mi, 19.09. 17:00 35% 30 km
Mi, 19.09. 16:50 35% -
Mi, 19.09. 16:40 36% -
Mi, 19.09. 16:30 36% 19 km
Mi, 19.09. 16:20 36% -
Mi, 19.09. 16:10 35% -
Mi, 19.09. 16:00 35% 16 km
Mi, 19.09. 15:30 36% 19 km
Mi, 19.09. 15:00 36% 23 km
Mi, 19.09. 14:30 37% 24 km
Mi, 19.09. 14:00 37% 16 km
Ortszeit Niederschlagsmenge Niederschlagsart
Mi, 19.09. 14:00 0.0 l/m2 in 6 Std. -
Mi, 19.09. 8:00 0.0 l/m2 in 12 Std. -
Mi, 19.09. 2:00 0.0 l/m2 in 6 Std. -
Di, 18.09. 20:00 0.0 l/m2 in 12 Std. -
Di, 18.09. 14:00 0.1 l/m2 in 6 Std. Niederschlag
Di, 18.09. 8:00 0.0 l/m2 in 12 Std. -
Di, 18.09. 2:00 0.0 l/m2 in 6 Std. -
Mo, 17.09. 20:00 0.0 l/m2 in 12 Std. -
Ortszeit Niederschlagsmenge Niederschlagsart
Mi, 19.09. 17:00 0.0 l/m2 in 1 Std. -
Mi, 19.09. 16:50 keine Meldung -
Mi, 19.09. 16:40 keine Meldung -
Mi, 19.09. 16:30 0.0 l/m2 in 1 Std. -
Mi, 19.09. 16:20 keine Meldung -
Mi, 19.09. 16:10 keine Meldung -
Mi, 19.09. 16:00 0.0 l/m2 in 1 Std. -
Mi, 19.09. 15:30 0.0 l/m2 in 1 Std. -
Mi, 19.09. 15:00 0.0 l/m2 in 1 Std. -
Mi, 19.09. 14:30 0.0 l/m2 in 1 Std. -
Mi, 19.09. 14:00 0.0 l/m2 in 1 Std. -
Ortszeit Stärke Spitze Richtung
km/h Bft. km/h Grad Sektor
Mi, 19.09. 14:00 11 2 25 230° SW
Mi, 19.09. 8:00 7 2 11 300° NW
Mi, 19.09. 2:00 7 2 11 160° S
Di, 18.09. 20:00 9 2 35 170° S
Di, 18.09. 14:00 13 3 31 220° SW
Di, 18.09. 8:00 6 1 13 90° O
Di, 18.09. 2:00 4 1 11 100° O
Mo, 17.09. 20:00 2 1 22 120° SO
Ortszeit Stärke Spitze Richtung
km/h Bft. km/h Grad Sektor
Mi, 19.09. 17:00 13 3 22 240° SW
Mi, 19.09. 16:50 13 3 - 240° SW
Mi, 19.09. 16:40 11 2 - 230° SW
Mi, 19.09. 16:30 13 3 22 230° SW
Mi, 19.09. 16:20 13 3 - 230° SW
Mi, 19.09. 16:10 14 3 - 220° SW
Mi, 19.09. 16:00 17 3 26 220° SW
Mi, 19.09. 15:30 9 2 22 230° SW
Mi, 19.09. 15:00 11 2 31 220° SW
Mi, 19.09. 14:30 11 2 22 240° SW
Mi, 19.09. 14:00 11 2 22 230° SW
Ortszeit Untergrenze Bedeckung Gattung
total tief tief mittel hoch
Mi, 19.09. 14:00 - 0/8 0/8 - - -
Mi, 19.09. 8:00 - 0/8 0/8 - - -
Mi, 19.09. 2:00 - 0/8 0/8 - - -
Di, 18.09. 20:00 - 0/8 0/8 - - -
Di, 18.09. 14:00 1800 m 4/8 1/8 - - -
Di, 18.09. 8:00 - - - - - -
Di, 18.09. 2:00 - - - - - -
Mo, 17.09. 20:00 - - - - - -
Ortszeit Bedeckungsgrad in Achtel und Wolkenuntergrenze
Mi, 19.09. 17:00 4(10500m)
Mi, 19.09. 16:50 4(10500m)
Mi, 19.09. 16:40 7(10500m)
Mi, 19.09. 16:30 2(9000m) 8(10500m)
Mi, 19.09. 16:20 2(9000m) 8(10500m)
Mi, 19.09. 16:10 5(9000m) 8(10500m)
Mi, 19.09. 16:00 7(9000m)
Mi, 19.09. 15:30 2(9000m) 6(9000m) 7(9000m)
Mi, 19.09. 15:00 7(9000m) 8(9000m) 8(10500m)
Mi, 19.09. 14:30 5(9000m) 6(9000m) 7(10500m)
Mi, 19.09. 14:00 keine Wolken
Ortszeit Luftdruck NN (hPa) Tendenz (hPa in 3 Std.)
Mi, 19.09. 14:00 1018 - 0,5
Mi, 19.09. 8:00 1018 + 1,9
Mi, 19.09. 2:00 1014 + 0,1
Di, 18.09. 20:00 1014 + 0,1
Di, 18.09. 14:00 1015 - 1,8
Di, 18.09. 8:00 1018 + 0,1
Di, 18.09. 2:00 1018 - 0,3
Mo, 17.09. 20:00 1019 + 0,2
Ortszeit Luftdruck NN (hPa) Tendenz (hPa in 3 Std.)
Mi, 19.09. 17:00 1017 - 0,8
Mi, 19.09. 16:50 1017 keine Meldung
Mi, 19.09. 16:40 1017 keine Meldung
Mi, 19.09. 16:30 1017 - 1,0
Mi, 19.09. 16:20 1017 keine Meldung
Mi, 19.09. 16:10 1018 keine Meldung
Mi, 19.09. 16:00 1018 - 0,8
Mi, 19.09. 15:30 1018 - 0,8
Mi, 19.09. 15:00 1018 - 0,8
Mi, 19.09. 14:30 1018 - 0,7
Mi, 19.09. 14:00 1018 - 0,5
Ortszeit Schneehöhe (cm)
Mi, 19.09. 14:00 -
Mi, 19.09. 8:00 -
Mi, 19.09. 2:00 -
Di, 18.09. 20:00 -
Di, 18.09. 14:00 -
Di, 18.09. 8:00 -
Di, 18.09. 2:00 -
Mo, 17.09. 20:00 -
Ortszeit Schneehöhe (cm)
Mi, 19.09. 17:00 -
Mi, 19.09. 16:50 -
Mi, 19.09. 16:40 -
Mi, 19.09. 16:30 -
Mi, 19.09. 16:20 -
Mi, 19.09. 16:10 -
Mi, 19.09. 16:00 -
Mi, 19.09. 15:30 -
Mi, 19.09. 15:00 -
Mi, 19.09. 14:30 -
Mi, 19.09. 14:00 -
Link zu dieser Seite / Seite empfehlen

Das Wetter in ...